Time;durP1;ratioP1;P1;durP2;ratioP2;P2;SDS_P1;SDS_P2;PMS_P1;PMS_P2;Temp;Humidity;BMP_temperature;BMP_pressure;BME280_temperature;BME280_humidity;BME280_pressure;Samples;Min_cycle;Max_cycle;Signal;HPM_P1;HPM_P2
2022/10/27 00:00:51;;;;;;;0.08;0.08;;;11.50;99.90;;;;;;5078015;28;20060;-85
2022/10/27 00:03:17;;;;;;;0.17;0.15;;;11.30;99.90;;;;;;5061627;28;20821;-86
2022/10/27 00:05:45;;;;;;;0.00;0.00;;;12.00;99.90;;;;;;5079336;28;20049;-86
2022/10/27 00:08:18;;;;;;;6.85;0.80;;;12.30;99.90;;;;;;5065139;28;20024;-86
2022/10/27 00:10:54;;;;;;;0.95;0.65;;;11.60;99.90;;;;;;5080060;28;20044;-87
2022/10/27 00:13:19;;;;;;;1.25;0.60;;;12.10;99.90;;;;;;5079040;28;20021;-86
2022/10/27 00:16:05;;;;;;;0.10;0.10;;;12.20;99.90;;;;;;5082642;28;20070;-85
2022/10/27 00:18:31;;;;;;;0.13;0.10;;;11.60;99.90;;;;;;5056225;28;20048;-85
2022/10/27 00:21:08;;;;;;;0.20;0.20;;;11.50;99.90;;;;;;5038954;28;20494;-85
2022/10/27 00:23:34;;;;;;;0.30;0.10;;;11.70;99.90;;;;;;5038519;28;20052;-86
2022/10/27 00:26:01;;;;;;;1.05;0.93;;;12.50;99.90;;;;;;5021749;28;20133;-86
2022/10/27 00:28:27;;;;;;;0.63;0.63;;;11.70;99.90;;;;;;5056412;28;20076;-86
2022/10/27 00:31:20;;;;;;;0.10;0.10;;;12.50;99.90;;;;;;5037735;28;20051;-86
2022/10/27 00:33:47;;;;;;;0.00;0.00;;;11.20;99.90;;;;;;5053369;28;20049;-86
2022/10/27 00:36:16;;;;;;;0.25;0.25;;;12.40;99.90;;;;;;5075503;28;20103;-85
2022/10/27 00:38:42;;;;;;;0.30;0.30;;;11.80;99.90;;;;;;5074318;28;20052;-85
2022/10/27 00:41:31;;;;;;;0.00;0.00;;;11.90;99.90;;;;;;5057046;28;20049;-86
2022/10/27 00:43:58;;;;;;;0.30;0.20;;;11.40;99.90;;;;;;5055520;28;20053;-86
2022/10/27 00:46:42;;;;;;;0.95;0.77;;;11.20;99.90;;;;;;5020669;28;20048;-86
2022/10/27 00:49:14;;;;;;;1.65;0.10;;;11.40;99.90;;;;;;5020815;28;20053;-85
2022/10/27 00:51:51;;;;;;;0.88;0.85;;;12.30;99.90;;;;;;5053350;28;20418;-85
2022/10/27 00:54:18;;;;;;;0.40;0.25;;;11.50;99.90;;;;;;5051529;28;20063;-86
2022/10/27 00:56:46;;;;;;;1.60;0.52;;;11.50;99.90;;;;;;5050136;28;20087;-85
2022/10/27 00:59:13;;;;;;;0.30;0.30;;;11.40;99.90;;;;;;5050445;28;20060;-85
2022/10/27 01:01:40;;;;;;;3.03;1.05;;;11.30;99.90;;;;;;5031834;28;20115;-85
2022/10/27 01:04:07;;;;;;;0.13;0.13;;;11.50;99.90;;;;;;5032054;28;20122;-85
2022/10/27 01:06:34;;;;;;;0.10;0.10;;;11.70;99.90;;;;;;5015486;28;20048;-86
2022/10/27 01:09:01;;;;;;;0.75;0.32;;;12.30;99.90;;;;;;5032318;28;20057;-86
2022/10/27 01:11:27;;;;;;;0.45;0.40;;;12.40;99.90;;;;;;5050088;28;20145;-85
2022/10/27 01:13:52;;;;;;;0.95;0.65;;;11.60;99.90;;;;;;5017975;28;20521;-85
2022/10/27 01:16:30;;;;;;;0.03;0.03;;;11.60;99.90;;;;;;5035686;28;20056;-86
2022/10/27 01:19:36;;;;;;;0.40;0.40;;;11.60;99.90;;;;;;5069669;28;20056;-86
2022/10/27 01:22:06;;;;;;;0.88;0.57;;;11.70;99.90;;;;;;5070590;28;20148;-86
2022/10/27 01:24:47;;;;;;;0.28;0.20;;;11.70;99.90;;;;;;5070305;28;20060;-85
2022/10/27 01:27:41;;;;;;;1.55;0.80;;;11.80;99.90;;;;;;5070822;28;20536;-86
2022/10/27 01:30:15;;;;;;;0.22;0.17;;;11.90;99.90;;;;;;5035665;28;20049;-86
2022/10/27 01:32:43;;;;;;;0.57;0.50;;;12.00;99.90;;;;;;5069577;28;20052;-85
2022/10/27 01:35:12;;;;;;;0.25;0.25;;;12.00;99.90;;;;;;5069964;28;20102;-86
2022/10/27 01:38:10;;;;;;;8.15;2.13;;;12.10;99.90;;;;;;5069368;28;20106;-86
2022/10/27 01:41:11;;;;;;;0.82;0.50;;;12.20;99.90;;;;;;5021525;28;20477;-86
2022/10/27 01:43:37;;;;;;;0.77;0.68;;;12.40;99.90;;;;;;4989636;28;20046;-86
2022/10/27 01:46:08;;;;;;;0.15;0.15;;;12.40;99.90;;;;;;5041762;28;20109;-86
2022/10/27 01:48:41;;;;;;;0.75;0.35;;;13.50;99.90;;;;;;5058991;28;20037;-86
2022/10/27 01:51:07;;;;;;;2.17;1.05;;;12.40;99.90;;;;;;5041944;28;20051;-86
2022/10/27 01:53:41;;;;;;;0.52;0.35;;;13.20;99.90;;;;;;5076451;28;20020;-85
2022/10/27 01:56:31;;;;;;;0.60;0.32;;;12.40;99.90;;;;;;5055470;28;20136;-85
2022/10/27 01:59:21;;;;;;;24.33;1.08;;;12.40;99.90;;;;;;5054497;28;20080;-84
2022/10/27 02:01:57;;;;;;;0.20;0.20;;;12.90;99.90;;;;;;5074139;28;20110;-85
2022/10/27 02:04:44;;;;;;;1.60;0.45;;;12.50;99.90;;;;;;5073123;28;20648;-85
2022/10/27 02:07:36;;;;;;;11.95;1.20;;;12.60;99.90;;;;;;5071628;28;20433;-85
2022/10/27 02:10:46;;;;;;;0.38;0.38;;;12.50;99.90;;;;;;5068645;28;20186;-85
2022/10/27 02:13:12;;;;;;;0.40;0.40;;;12.50;99.90;;;;;;5041168;28;20395;-85
2022/10/27 02:15:56;;;;;;;2.08;0.88;;;12.40;99.90;;;;;;5014565;28;20056;-85
2022/10/27 02:18:29;;;;;;;0.20;0.20;;;12.50;99.90;;;;;;5061952;28;20084;-85
2022/10/27 02:21:00;;;;;;;0.30;0.30;;;12.50;99.90;;;;;;5050893;28;20045;-85
2022/10/27 02:23:27;;;;;;;1.73;0.63;;;12.90;99.90;;;;;;5057926;28;20044;-85
2022/10/27 02:26:13;;;;;;;1.38;1.27;;;12.30;99.90;;;;;;5013983;28;20407;-85
2022/10/27 02:28:56;;;;;;;1.65;0.65;;;12.30;99.90;;;;;;5049337;28;20037;-86
2022/10/27 02:31:29;;;;;;;2.05;0.65;;;13.00;99.90;;;;;;5030802;28;20498;-85
2022/10/27 02:33:56;;;;;;;1.17;1.05;;;12.30;99.90;;;;;;5030369;28;20139;-85
2022/10/27 02:36:22;;;;;;;0.88;0.50;;;12.50;99.90;;;;;;5048094;28;20179;-84
2022/10/27 02:38:47;;;;;;;0.50;0.45;;;12.60;99.90;;;;;;5013600;28;20183;-85
2022/10/27 02:41:13;;;;;;;0.10;0.10;;;12.10;99.90;;;;;;5030934;28;20057;-85
2022/10/27 02:43:39;;;;;;;2.10;1.13;;;12.00;99.90;;;;;;5048819;28;20080;-85
2022/10/27 02:46:05;;;;;;;1.55;1.45;;;12.00;99.90;;;;;;5030863;28;20154;-85
2022/10/27 02:48:33;;;;;;;2.20;1.20;;;11.90;99.90;;;;;;5031364;28;20063;-86
2022/10/27 02:51:02;;;;;;;0.70;0.47;;;11.80;99.90;;;;;;5031335;28;20136;-86
2022/10/27 02:53:28;;;;;;;0.63;0.60;;;11.80;99.90;;;;;;5031611;28;20040;-85
2022/10/27 02:55:54;;;;;;;0.32;0.20;;;11.70;99.90;;;;;;5032016;28;20392;-85
2022/10/27 02:58:19;;;;;;;0.55;0.30;;;12.80;99.90;;;;;;5032241;28;20045;-85
2022/10/27 03:00:45;;;;;;;0.20;0.20;;;12.10;99.90;;;;;;5032815;28;20048;-86
2022/10/27 03:03:11;;;;;;;0.88;0.40;;;11.60;99.90;;;;;;5034013;28;20056;-86
2022/10/27 03:05:36;;;;;;;0.40;0.40;;;11.50;99.90;;;;;;5037236;28;20088;-84
2022/10/27 03:08:02;;;;;;;0.28;0.28;;;12.20;99.90;;;;;;5054545;28;20033;-86
2022/10/27 03:10:28;;;;;;;0.63;0.28;;;11.50;99.90;;;;;;5019559;28;20124;-85
2022/10/27 03:12:54;;;;;;;5.47;1.63;;;11.30;99.90;;;;;;5058902;28;20056;-85
2022/10/27 03:15:20;;;;;;;0.30;0.30;;;11.40;99.90;;;;;;5058138;28;20045;-85
2022/10/27 03:17:47;;;;;;;0.85;0.82;;;11.80;99.90;;;;;;5057430;28;20059;-85
2022/10/27 03:20:13;;;;;;;0.47;0.47;;;12.50;99.90;;;;;;5074807;28;20025;-86
2022/10/27 03:22:39;;;;;;;0.20;0.20;;;12.40;99.90;;;;;;5061048;28;20055;-86
2022/10/27 03:25:05;;;;;;;0.32;0.30;;;10.90;99.90;;;;;;5043935;28;20060;-86
2022/10/27 03:27:35;;;;;;;0.32;0.32;;;11.90;99.90;;;;;;5077364;28;20021;-86
2022/10/27 03:30:01;;;;;;;3.40;1.17;;;12.00;99.90;;;;;;5077088;28;20032;-85
2022/10/27 03:32:26;;;;;;;2.90;0.63;;;12.00;99.90;;;;;;5078922;28;20048;-86
2022/10/27 03:34:52;;;;;;;1.13;1.00;;;11.90;99.90;;;;;;5073030;28;20402;-85
2022/10/27 03:37:18;;;;;;;0.98;0.75;;;11.90;99.90;;;;;;5054748;28;20466;-84
2022/10/27 03:39:43;;;;;;;0.28;0.25;;;11.90;99.90;;;;;;5072617;28;20047;-85
2022/10/27 03:42:09;;;;;;;0.10;0.10;;;11.90;99.90;;;;;;5054995;28;20132;-85
2022/10/27 03:44:35;;;;;;;0.50;0.50;;;12.00;99.90;;;;;;5072048;28;20072;-86
2022/10/27 03:47:00;;;;;;;0.52;0.50;;;12.00;99.90;;;;;;5070865;28;20048;-86
2022/10/27 03:49:26;;;;;;;0.50;0.47;;;12.00;99.90;;;;;;5072753;28;20040;-85
2022/10/27 03:51:51;;;;;;;0.70;0.70;;;12.20;99.90;;;;;;5037978;28;20119;-85
2022/10/27 03:54:17;;;;;;;0.32;0.32;;;12.30;99.90;;;;;;5055117;28;20463;-85
2022/10/27 03:56:43;;;;;;;1.08;0.90;;;13.30;99.90;;;;;;5057545;28;20044;-85
2022/10/27 03:59:09;;;;;;;0.10;0.10;;;13.40;99.90;;;;;;5043172;28;20087;-85
2022/10/27 04:01:35;;;;;;;1.38;0.73;;;12.30;99.90;;;;;;5080340;28;20072;-85
2022/10/27 04:04:03;;;;;;;0.43;0.43;;;12.30;99.90;;;;;;5077690;28;20144;-86
2022/10/27 04:06:29;;;;;;;0.55;0.55;;;13.10;99.90;;;;;;5093716;28;20063;-85
2022/10/27 04:08:55;;;;;;;2.15;1.60;;;12.70;99.90;;;;;;5095958;28;20128;-85
2022/10/27 04:11:21;;;;;;;0.50;0.50;;;12.40;99.90;;;;;;5074871;28;20087;-85
2022/10/27 04:13:46;;;;;;;0.50;0.38;;;12.40;99.90;;;;;;5076917;28;20223;-84
2022/10/27 04:16:12;;;;;;;1.17;0.65;;;12.40;99.90;;;;;;5042861;28;20095;-85
2022/10/27 04:18:38;;;;;;;3.92;1.23;;;12.50;99.90;;;;;;5053664;28;20083;-85
2022/10/27 04:21:06;;;;;;;0.45;0.43;;;12.30;99.90;;;;;;5053554;28;20045;-84
2022/10/27 04:23:32;;;;;;;0.98;0.70;;;13.50;99.90;;;;;;5034998;28;20056;-85
2022/10/27 04:25:58;;;;;;;0.47;0.40;;;12.40;99.90;;;;;;5052587;28;20048;-85
2022/10/27 04:28:24;;;;;;;0.80;0.20;;;12.40;99.90;;;;;;5034553;28;20057;-85
2022/10/27 04:30:49;;;;;;;0.22;0.22;;;13.10;99.90;;;;;;5017459;28;20496;-85
2022/10/27 04:33:15;;;;;;;1.20;0.50;;;12.30;99.90;;;;;;5033974;28;20099;-85
2022/10/27 04:35:41;;;;;;;1.25;0.85;;;12.20;99.90;;;;;;5052682;28;20144;-84
2022/10/27 04:38:08;;;;;;;0.00;0.00;;;12.20;99.90;;;;;;5035148;28;20049;-85
2022/10/27 04:40:34;;;;;;;0.75;0.68;;;12.10;99.90;;;;;;5051815;28;20057;-84
2022/10/27 04:43:00;;;;;;;2.03;1.40;;;11.40;99.90;;;;;;5051758;28;20463;-85
2022/10/27 04:45:28;;;;;;;1.10;1.00;;;12.20;99.90;;;;;;5033201;28;20055;-86
2022/10/27 04:47:54;;;;;;;0.82;0.35;;;12.20;99.90;;;;;;5051576;28;20084;-85
2022/10/27 04:50:21;;;;;;;0.10;0.10;;;13.30;99.90;;;;;;5051582;28;20087;-85
2022/10/27 04:53:00;;;;;;;1.67;0.45;;;12.30;99.90;;;;;;5060859;28;20095;-86
2022/10/27 04:55:27;;;;;;;2.17;1.10;;;12.30;99.90;;;;;;5070258;28;20697;-84
2022/10/27 04:57:53;;;;;;;0.52;0.47;;;12.30;99.90;;;;;;5070245;28;20123;-85
2022/10/27 05:00:20;;;;;;;2.05;1.38;;;12.30;99.90;;;;;;5070016;28;20047;-85
2022/10/27 05:02:55;;;;;;;1.08;0.68;;;12.30;99.90;;;;;;5035114;28;20067;-83
2022/10/27 05:05:21;;;;;;;1.10;1.00;;;12.20;99.90;;;;;;5069944;28;20048;-85
2022/10/27 05:08:02;;;;;;;0.52;0.40;;;12.70;99.90;;;;;;5070243;28;20059;-85
2022/10/27 05:10:30;;;;;;;0.20;0.20;;;12.30;99.90;;;;;;5069923;28;20094;-85
2022/10/27 05:12:55;;;;;;;0.63;0.63;;;12.30;99.90;;;;;;5070305;28;20547;-85
2022/10/27 05:15:21;;;;;;;0.95;0.80;;;12.80;99.90;;;;;;5070977;28;20048;-85
2022/10/27 05:17:47;;;;;;;0.63;0.52;;;12.20;99.90;;;;;;5070716;28;20093;-84
2022/10/27 05:20:13;;;;;;;0.73;0.63;;;12.30;99.90;;;;;;5070791;28;20115;-84
2022/10/27 05:22:39;;;;;;;0.45;0.30;;;12.30;99.90;;;;;;5070654;28;20044;-85
2022/10/27 05:25:06;;;;;;;0.75;0.68;;;12.30;99.90;;;;;;5070231;28;20093;-84
2022/10/27 05:27:32;;;;;;;0.70;0.57;;;12.30;99.90;;;;;;5053082;28;20052;-85
2022/10/27 05:30:00;;;;;;;1.50;1.00;;;12.30;99.90;;;;;;5070050;28;20044;-85
2022/10/27 05:32:26;;;;;;;0.93;0.77;;;12.30;99.90;;;;;;5070042;28;20046;-84
2022/10/27 05:34:52;;;;;;;1.08;0.98;;;12.50;99.90;;;;;;5053512;28;20063;-85
2022/10/27 05:37:17;;;;;;;0.65;0.65;;;13.20;99.90;;;;;;5051561;28;20384;-84
2022/10/27 05:39:43;;;;;;;1.45;0.95;;;12.50;99.90;;;;;;5034951;28;20773;-84
2022/10/27 05:42:09;;;;;;;0.68;0.68;;;12.50;99.90;;;;;;5064538;28;20208;-86
2022/10/27 05:44:34;;;;;;;1.13;0.77;;;12.40;99.90;;;;;;5048821;28;20045;-85
2022/10/27 05:47:00;;;;;;;1.00;0.68;;;12.50;99.90;;;;;;5014552;28;20462;-85
2022/10/27 05:49:26;;;;;;;1.00;0.50;;;12.40;99.90;;;;;;5049827;28;20129;-85
2022/10/27 05:51:51;;;;;;;2.10;1.02;;;13.50;99.90;;;;;;5032024;28;20098;-85
2022/10/27 05:54:18;;;;;;;1.15;0.43;;;11.90;99.90;;;;;;5015430;28;20044;-86
2022/10/27 05:56:44;;;;;;;0.20;0.20;;;12.80;99.90;;;;;;5049898;28;20457;-84
2022/10/27 05:59:11;;;;;;;0.82;0.80;;;13.30;99.90;;;;;;5051534;28;20059;-85
2022/10/27 06:01:36;;;;;;;0.80;0.43;;;12.50;99.90;;;;;;5051727;28;20057;-85
2022/10/27 06:04:02;;;;;;;0.40;0.40;;;12.50;99.90;;;;;;5052672;28;20103;-85
2022/10/27 06:06:28;;;;;;;0.50;0.50;;;12.50;99.90;;;;;;5052499;28;20048;-85
2022/10/27 06:08:54;;;;;;;0.65;0.63;;;12.50;99.90;;;;;;5035974;28;20080;-85
2022/10/27 06:11:19;;;;;;;1.40;1.20;;;12.50;99.90;;;;;;5035354;28;20121;-84
2022/10/27 06:13:49;;;;;;;1.92;0.75;;;12.60;99.90;;;;;;5053158;28;20057;-85
2022/10/27 06:16:15;;;;;;;0.90;0.75;;;13.40;99.90;;;;;;5054200;28;20106;-84
2022/10/27 06:18:41;;;;;;;1.17;0.63;;;12.60;99.90;;;;;;5052978;28;20057;-85
2022/10/27 06:21:06;;;;;;;0.30;0.30;;;12.70;99.90;;;;;;5065152;28;20135;-84
2022/10/27 06:23:32;;;;;;;1.55;1.23;;;12.70;99.90;;;;;;5047537;28;20100;-86
2022/10/27 06:48:15;;;;;;;3.88;0.93;;;13.50;99.90;;;;;;4850140;29;20046;-86
2022/10/27 06:51:15;;;;;;;0.22;0.22;;;12.70;99.90;;;;;;4835658;29;20062;-89
2022/10/27 06:58:25;;;;;;;1.80;1.38;;;12.50;99.90;;;;;;4801594;30;20062;-88
2022/10/27 07:15:57;;;;;;;2.03;0.88;;;12.70;99.90;;;;;;4753607;30;20071;-88
2022/10/27 07:18:26;;;;;;;0.28;0.25;;;13.20;99.90;;;;;;4724202;30;20102;-89
2022/10/27 07:32:14;;;;;;;0.85;0.65;;;12.90;99.90;;;;;;4892940;29;20047;-89
2022/10/27 07:35:32;;;;;;;0.32;0.32;;;13.60;99.90;;;;;;4930355;28;20077;-88
2022/10/27 07:38:16;;;;;;;;;;;;;;;;;;;;;
2022/10/27 07:41:44;;;;;;;0.30;0.22;;;13.60;99.90;;;;;;4991382;28;20080;-87
2022/10/27 07:44:44;;;;;;;0.85;0.30;;;13.70;99.90;;;;;;4968113;28;20051;-89
2022/10/27 07:50:32;;;;;;;0.38;0.38;;;13.80;99.90;;;;;;4981804;28;20062;-87
2022/10/27 07:53:14;;;;;;;3.00;0.35;;;13.80;99.90;;;;;;4948297;29;20085;-87
2022/10/27 07:55:51;;;;;;;0.28;0.28;;;14.90;99.90;;;;;;4949112;29;20055;-86
2022/10/27 07:58:30;;;;;;;0.82;0.65;;;15.00;99.90;;;;;;4999633;28;20061;-87
2022/10/27 08:01:20;;;;;;;0.98;0.75;;;13.90;99.90;;;;;;5014813;28;20125;-88
2022/10/27 08:04:17;;;;;;;9.45;1.67;;;14.00;99.90;;;;;;4986864;28;20185;-88
2022/10/27 08:07:04;;;;;;;1.02;0.55;;;14.10;99.90;;;;;;4989785;28;20076;-87
2022/10/27 08:09:45;;;;;;;;;;;;;;;;;;;;;
2022/10/27 08:12:55;;;;;;;0.15;0.15;;;14.20;99.90;;;;;;5066307;28;20060;-89
2022/10/27 08:15:29;;;;;;;0.35;0.25;;;14.30;99.90;;;;;;5041033;28;20067;-88
2022/10/27 08:18:02;;;;;;;1.08;0.20;;;15.00;99.90;;;;;;5069812;28;20048;-90
2022/10/27 08:20:53;;;;;;;0.70;0.52;;;15.30;99.90;;;;;;5070742;28;20056;-89
2022/10/27 08:23:57;;;;;;;1.00;0.95;;;14.40;99.90;;;;;;5050908;28;20060;-89
2022/10/27 08:30:24;;;;;;;1.00;0.40;;;14.60;99.90;;;;;;5034178;28;20075;-88
2022/10/27 08:33:46;;;;;;;0.20;0.08;;;14.50;99.90;;;;;;5070921;28;20033;-88
2022/10/27 08:36:11;;;;;;;0.80;0.28;;;14.50;99.90;;;;;;5060174;28;20079;-85
2022/10/27 08:38:37;;;;;;;0.60;0.50;;;14.60;99.90;;;;;;5065997;28;20076;-83
2022/10/27 08:41:22;;;;;;;1.20;0.47;;;14.70;99.90;;;;;;5031933;28;20044;-86
2022/10/27 08:44:08;;;;;;;1.20;0.68;;;14.80;99.90;;;;;;5054628;28;20074;-85
2022/10/27 08:46:46;;;;;;;0.77;0.63;;;14.80;99.90;;;;;;5079366;28;20036;-86
2022/10/27 08:49:28;;;;;;;4.28;1.63;;;15.00;99.90;;;;;;5066680;28;20998;-85
2022/10/27 08:52:00;;;;;;;0.93;0.77;;;15.20;99.90;;;;;;5060286;28;20053;-85
2022/10/27 08:54:27;;;;;;;0.90;0.55;;;15.30;99.90;;;;;;5080319;28;20052;-86
2022/10/27 08:56:56;;;;;;;0.45;0.43;;;15.40;99.90;;;;;;5074001;28;20158;-85
2022/10/27 08:59:24;;;;;;;0.40;0.40;;;15.60;99.90;;;;;;5051535;28;20086;-85
2022/10/27 09:02:06;;;;;;;0.20;0.20;;;16.30;99.90;;;;;;5051785;28;20060;-83
2022/10/27 09:04:34;;;;;;;1.13;1.02;;;15.70;99.90;;;;;;5069522;28;20048;-85
2022/10/27 09:07:15;;;;;;;0.17;0.15;;;15.80;99.90;;;;;;5051040;28;20080;-86
2022/10/27 09:09:50;;;;;;;0.80;0.68;;;15.80;99.90;;;;;;5069967;28;20044;-86
2022/10/27 09:12:49;;;;;;;0.60;0.60;;;16.00;99.90;;;;;;5051356;28;20054;-86
2022/10/27 09:15:18;;;;;;;0.25;0.20;;;16.00;99.90;;;;;;5035693;28;20108;-86
2022/10/27 09:17:53;;;;;;;0.85;0.47;;;16.20;99.90;;;;;;5072083;28;20056;-86
2022/10/27 09:20:25;;;;;;;0.75;0.57;;;16.90;21.80;;;;;;5036961;28;20560;-84
2022/10/27 09:22:53;;;;;;;0.55;0.55;;;16.50;13.30;;;;;;5054649;28;20086;-86
2022/10/27 09:25:21;;;;;;;1.63;1.33;;;17.00;57.20;;;;;;5051848;28;20049;-84
2022/10/27 09:27:54;;;;;;;0.85;0.63;;;16.70;1.00;;;;;;5070496;28;20051;-85
2022/10/27 09:30:20;;;;;;;0.52;0.40;;;16.60;33.00;;;;;;5055344;28;20055;-85
2022/10/27 09:32:48;;;;;;;0.70;0.70;;;16.70;1.00;;;;;;5079430;28;20072;-86
2022/10/27 09:35:27;;;;;;;1.27;0.40;;;16.90;1.00;;;;;;5079186;28;20048;-85
2022/10/27 09:37:59;;;;;;;0.10;0.10;;;16.90;1.00;;;;;;5060882;28;20044;-84
2022/10/27 09:40:30;;;;;;;2.50;0.93;;;17.00;1.00;;;;;;5082034;28;20045;-86
2022/10/27 09:42:56;;;;;;;0.75;0.40;;;17.20;99.90;;;;;;5062118;28;20052;-85
2022/10/27 09:45:26;;;;;;;0.25;0.25;;;17.40;99.90;;;;;;5077028;28;20125;-86
2022/10/27 09:48:17;;;;;;;4.65;1.92;;;17.50;74.50;;;;;;5050628;28;20053;-85
2022/10/27 09:51:08;;;;;;;0.47;0.40;;;17.60;99.90;;;;;;5052439;28;20510;-84
2022/10/27 09:53:43;;;;;;;16.67;0.95;;;17.70;99.90;;;;;;5070029;28;20088;-84
2022/10/27 09:56:16;;;;;;;0.25;0.15;;;17.70;99.90;;;;;;5067988;28;20041;-85
2022/10/27 09:59:06;;;;;;;0.08;0.08;;;18.00;99.90;;;;;;5070782;28;20048;-85
2022/10/27 10:01:58;;;;;;;1.02;0.85;;;18.00;1.00;;;;;;5055268;28;20392;-85
2022/10/27 10:04:33;;;;;;;0.80;0.30;;;18.20;1.00;;;;;;5069385;28;20053;-86
2022/10/27 10:07:02;;;;;;;0.10;0.10;;;18.20;1.00;;;;;;5049925;28;20116;-85
2022/10/27 10:09:31;;;;;;;0.43;0.38;;;18.20;99.90;;;;;;5070556;28;20147;-85
2022/10/27 10:12:16;;;;;;;0.10;0.05;;;18.50;99.90;;;;;;5051263;28;20055;-86
2022/10/27 10:14:41;;;;;;;0.00;0.00;;;18.50;33.60;;;;;;5055410;28;20052;-85
2022/10/27 10:17:27;;;;;;;0.40;0.40;;;18.60;99.90;;;;;;5068963;28;20113;-85
2022/10/27 10:19:56;;;;;;;0.55;0.35;;;18.70;99.90;;;;;;5070122;28;20613;-85
2022/10/27 10:22:28;;;;;;;0.47;0.43;;;18.90;99.90;;;;;;5069751;28;20063;-85
2022/10/27 10:24:57;;;;;;;0.38;0.38;;;19.00;68.80;;;;;;5052069;28;20051;-85
2022/10/27 10:27:32;;;;;;;0.43;0.22;;;19.30;1.00;;;;;;5070013;28;20052;-85
2022/10/27 10:30:03;;;;;;;0.17;0.10;;;19.60;99.90;;;;;;5051010;28;20123;-85
2022/10/27 10:32:35;;;;;;;0.00;0.00;;;19.30;99.90;;;;;;5072311;28;20048;-85
2022/10/27 10:35:02;;;;;;;1.25;0.52;;;19.40;99.90;;;;;;5072082;28;20098;-85
2022/10/27 10:37:29;;;;;;;0.38;0.20;;;19.50;99.90;;;;;;5073526;28;20048;-86
2022/10/27 10:40:28;;;;;;;1.00;0.63;;;19.50;38.20;;;;;;5071581;28;20495;-85
2022/10/27 10:43:10;;;;;;;0.25;0.20;;;19.50;1.00;;;;;;5070201;28;20053;-85
2022/10/27 10:45:38;;;;;;;0.17;0.17;;;19.30;1.00;;;;;;5078851;28;20106;-86
2022/10/27 10:48:31;;;;;;;0.00;0.00;;;19.50;1.00;;;;;;5045947;28;20059;-84
2022/10/27 10:50:58;;;;;;;0.00;0.00;;;19.80;1.00;;;;;;5049577;28;20370;-86
2022/10/27 10:53:32;;;;;;;0.17;0.15;;;19.60;99.90;;;;;;5053004;28;20092;-84
2022/10/27 10:56:16;;;;;;;0.52;0.45;;;20.00;1.00;;;;;;5075593;28;20045;-85
2022/10/27 10:58:42;;;;;;;0.70;0.43;;;19.80;99.90;;;;;;5057772;28;20048;-86
2022/10/27 11:01:08;;;;;;;0.00;0.00;;;19.80;99.90;;;;;;5073009;28;20047;-86
2022/10/27 11:03:39;;;;;;;0.28;0.28;;;19.90;99.90;;;;;;5074138;28;20036;-86
2022/10/27 11:06:14;;;;;;;0.52;0.40;;;19.90;99.90;;;;;;5091585;28;20043;-86
2022/10/27 11:08:43;;;;;;;0.10;0.10;;;20.00;99.90;;;;;;5090673;28;20036;-85
2022/10/27 11:11:18;;;;;;;0.63;0.38;;;20.90;99.90;;;;;;5073827;28;20033;-86
2022/10/27 11:13:54;;;;;;;0.00;0.00;;;20.30;99.90;;;;;;5073847;28;20056;-86
2022/10/27 11:16:20;;;;;;;0.00;0.00;;;20.70;99.90;;;;;;5069463;28;20033;-85
2022/10/27 11:18:59;;;;;;;0.00;0.00;;;20.50;99.90;;;;;;5082175;28;20080;-85
2022/10/27 11:21:38;;;;;;;3.63;1.08;;;20.50;98.80;;;;;;5068010;28;20044;-86
2022/10/27 11:24:13;;;;;;;1.65;0.55;;;20.40;1.00;;;;;;5037231;28;20052;-85
2022/10/27 11:26:54;;;;;;;0.00;0.00;;;20.60;80.70;;;;;;5070487;28;20505;-85
2022/10/27 11:29:49;;;;;;;0.30;0.30;;;20.70;20.80;;;;;;5034567;28;20049;-85
2022/10/27 11:32:39;;;;;;;0.00;0.00;;;20.90;32.80;;;;;;5035959;28;20056;-85
2022/10/27 11:35:27;;;;;;;0.00;0.00;;;21.20;1.00;;;;;;5050323;28;20056;-87
2022/10/27 11:38:29;;;;;;;0.20;0.10;;;21.20;1.00;;;;;;5069158;28;20499;-86
2022/10/27 11:41:09;;;;;;;1.50;0.20;;;21.10;1.00;;;;;;5017394;28;20055;-85
2022/10/27 11:43:57;;;;;;;0.00;0.00;;;21.00;1.00;;;;;;5074079;28;20320;-86
2022/10/27 11:46:44;;;;;;;3.85;0.55;;;20.70;99.90;;;;;;5073874;28;20137;-86
2022/10/27 11:49:19;;;;;;;0.00;0.00;;;20.40;1.00;;;;;;5053357;28;20044;-85
2022/10/27 11:51:51;;;;;;;0.85;0.35;;;20.30;1.00;;;;;;5054859;28;20599;-85
2022/10/27 11:54:17;;;;;;;0.03;0.03;;;20.20;1.00;;;;;;5053523;28;20075;-85
2022/10/27 11:57:20;;;;;;;0.10;0.10;;;20.30;1.00;;;;;;5071960;28;20052;-85
2022/10/27 12:00:04;;;;;;;0.08;0.08;;;20.30;1.00;;;;;;5044620;28;20056;-86
2022/10/27 12:02:48;;;;;;;0.30;0.10;;;20.40;1.00;;;;;;5052090;28;20060;-86
2022/10/27 12:05:18;;;;;;;0.52;0.50;;;20.20;1.00;;;;;;5036394;28;20074;-86
2022/10/27 12:08:09;;;;;;;4.68;1.77;;;20.30;1.00;;;;;;5052829;28;20418;-86
2022/10/27 12:11:04;;;;;;;0.00;0.00;;;20.30;99.90;;;;;;5054787;28;20075;-87
2022/10/27 12:13:53;;;;;;;0.40;0.40;;;20.50;1.00;;;;;;5070665;28;20074;-86
2022/10/27 12:16:56;;;;;;;0.40;0.35;;;20.80;1.00;;;;;;5054186;28;20048;-86
2022/10/27 12:19:28;;;;;;;0.20;0.20;;;20.70;1.00;;;;;;5071405;28;20054;-86
2022/10/27 12:22:04;;;;;;;1.35;0.52;;;21.10;1.00;;;;;;5071169;28;20513;-85
2022/10/27 12:24:35;;;;;;;;;;;21.10;99.90;;;;;;5071955;28;20118;-86
2022/10/27 12:27:11;;;;;;;0.15;0.15;;;21.20;1.00;;;;;;5054474;28;19925;-86
2022/10/27 12:29:43;;;;;;;0.40;0.28;;;20.80;1.00;;;;;;5071357;28;20444;-85
2022/10/27 12:32:24;;;;;;;0.00;0.00;;;20.90;1.00;;;;;;5069541;28;20127;-86
2022/10/27 12:35:05;;;;;;;0.03;0.03;;;20.40;99.90;;;;;;5057413;28;20098;-86
2022/10/27 12:38:00;;;;;;;0.10;0.10;;;20.10;1.00;;;;;;5070843;28;20119;-85
2022/10/27 12:40:38;;;;;;;1.98;0.93;;;20.10;1.00;;;;;;5071202;28;20074;-85
2022/10/27 12:43:29;;;;;;;0.00;0.00;;;19.80;20.90;;;;;;5038304;28;20056;-86
2022/10/27 12:46:46;;;;;;;0.57;0.22;;;19.70;90.30;;;;;;5073261;28;20044;-86
2022/10/27 12:49:44;;;;;;;0.40;0.20;;;19.60;99.90;;;;;;5025734;28;20056;-85
2022/10/27 12:52:26;;;;;;;0.13;0.13;;;19.60;99.90;;;;;;5056143;28;20044;-85
2022/10/27 12:55:26;;;;;;;0.32;0.28;;;19.70;99.90;;;;;;5073890;28;20044;-85
2022/10/27 12:58:21;;;;;;;1.30;0.50;;;20.00;99.90;;;;;;5054182;28;20082;-86
2022/10/27 13:01:37;;;;;;;0.00;0.00;;;19.90;99.90;;;;;;5070195;28;20068;-85
2022/10/27 13:04:23;;;;;;;1.00;0.68;;;20.30;99.90;;;;;;4992115;28;20056;-86
2022/10/27 13:07:08;;;;;;;0.63;0.45;;;20.50;99.90;;;;;;5035364;28;20127;-85
2022/10/27 13:09:55;;;;;;;0.10;0.10;;;20.50;99.90;;;;;;5070257;28;20102;-87
2022/10/27 13:12:43;;;;;;;0.08;0.08;;;20.80;1.00;;;;;;5072860;28;20098;-86
2022/10/27 13:15:43;;;;;;;0.10;0.10;;;20.90;71.10;;;;;;5054135;28;20053;-86
2022/10/27 13:18:49;;;;;;;0.00;0.00;;;21.20;1.00;;;;;;5070319;28;20080;-85
2022/10/27 13:21:39;;;;;;;0.10;0.10;;;21.20;99.90;;;;;;5071743;28;20055;-85
2022/10/27 13:24:28;;;;;;;0.43;0.38;;;21.50;99.90;;;;;;5036830;28;20491;-87
2022/10/27 13:27:15;;;;;;;0.73;0.43;;;21.30;99.90;;;;;;5036725;28;20041;-87
2022/10/27 13:29:52;;;;;;;0.00;0.00;;;21.10;99.90;;;;;;5072959;28;20048;-86
2022/10/27 13:32:25;;;;;;;0.00;0.00;;;21.00;99.90;;;;;;5069209;28;20060;-85
2022/10/27 13:35:00;;;;;;;0.00;0.00;;;20.90;99.90;;;;;;5053858;28;20056;-86
2022/10/27 13:37:48;;;;;;;0.43;0.10;;;21.00;99.90;;;;;;5054421;28;20045;-87
2022/10/27 13:42:50;;;;;;;0.05;0.05;;;20.90;99.90;;;;;;5089762;22;20105;-74
2022/10/27 13:45:34;;;;;;;0.17;0.17;;;21.00;99.90;;;;;;5056905;28;20152;-76
2022/10/27 13:48:14;;;;;;;0.00;0.00;;;21.10;99.90;;;;;;5060661;28;20056;-75
2022/10/27 13:50:44;;;;;;;0.77;0.22;;;21.00;99.90;;;;;;5056559;28;20087;-76
2022/10/27 13:53:18;;;;;;;0.00;0.00;;;20.90;99.90;;;;;;5060628;28;20045;-76
2022/10/27 13:55:51;;;;;;;0.10;0.05;;;20.80;99.90;;;;;;5040736;28;20123;-75
2022/10/27 13:58:19;;;;;;;0.10;0.10;;;20.60;99.90;;;;;;5056985;28;20060;-75
2022/10/27 14:01:24;;;;;;;0.00;0.00;;;20.20;99.90;;;;;;5059773;28;20052;-75
2022/10/27 14:04:03;;;;;;;0.05;0.05;;;20.10;1.00;;;;;;5054165;28;20049;-75
2022/10/27 14:06:30;;;;;;;0.00;0.00;;;19.90;1.00;;;;;;5059456;28;20041;-76
2022/10/27 14:09:10;;;;;;;0.00;0.00;;;19.90;1.00;;;;;;5059295;28;20071;-74
2022/10/27 14:11:35;;;;;;;0.20;0.20;;;19.90;1.00;;;;;;5059733;28;20044;-75
2022/10/27 14:14:23;;;;;;;0.10;0.00;;;19.60;99.90;;;;;;5056925;28;20075;-74
2022/10/27 14:16:48;;;;;;;0.10;0.10;;;19.50;99.90;;;;;;5058061;28;20252;-76
2022/10/27 14:19:21;;;;;;;8.38;1.60;;;19.60;99.90;;;;;;5055257;28;20071;-75
2022/10/27 14:21:51;;;;;;;0.00;0.00;;;19.20;1.00;;;;;;5048100;28;20059;-75
2022/10/27 14:24:29;;;;;;;0.00;0.00;;;18.40;99.90;;;;;;5047924;28;20045;-76
2022/10/27 14:27:03;;;;;;;0.00;0.00;;;17.90;14.90;;;;;;5046539;28;20126;-75
2022/10/27 14:29:29;;;;;;;0.08;0.08;;;17.50;99.90;;;;;;5047988;28;20077;-76
2022/10/27 14:32:30;;;;;;;0.00;0.00;;;17.20;99.90;;;;;;5054052;28;20495;-77
2022/10/27 14:35:19;;;;;;;0.05;0.05;;;17.10;1.00;;;;;;4986233;28;20113;-75